sensor_id;sensor_type;location;lat;lon;timestamp;P1;durP1;ratioP1;P2;durP2;ratioP2
33279;SDS011;20403;43.114;12.434;2022-08-07T05:31:51;11.65;;;4.35;;
33279;SDS011;20403;43.114;12.434;2022-08-07T05:34:18;11.55;;;4.25;;
33279;SDS011;20403;43.114;12.434;2022-08-07T05:36:45;13.85;;;4.53;;
33279;SDS011;20403;43.114;12.434;2022-08-07T05:39:14;16.63;;;4.28;;
33279;SDS011;20403;43.114;12.434;2022-08-07T05:41:42;8.85;;;3.95;;
33279;SDS011;20403;43.114;12.434;2022-08-07T05:44:08;13.93;;;4.05;;
33279;SDS011;20403;43.114;12.434;2022-08-07T05:46:35;11.68;;;4.07;;
33279;SDS011;20403;43.114;12.434;2022-08-07T05:49:02;15.75;;;4.70;;
33279;SDS011;20403;43.114;12.434;2022-08-07T05:51:30;19.55;;;4.43;;
33279;SDS011;20403;43.114;12.434;2022-08-07T05:53:56;10.68;;;3.95;;
33279;SDS011;20403;43.114;12.434;2022-08-07T05:56:21;18.27;;;4.22;;
33279;SDS011;20403;43.114;12.434;2022-08-07T05:58:48;12.65;;;4.35;;
33279;SDS011;20403;43.114;12.434;2022-08-07T06:01:14;11.77;;;3.85;;
33279;SDS011;20403;43.114;12.434;2022-08-07T06:03:46;11.85;;;4.20;;
33279;SDS011;20403;43.114;12.434;2022-08-07T06:06:15;8.70;;;3.40;;
33279;SDS011;20403;43.114;12.434;2022-08-07T06:08:41;13.35;;;3.90;;
33279;SDS011;20403;43.114;12.434;2022-08-07T06:11:08;9.20;;;3.45;;
33279;SDS011;20403;43.114;12.434;2022-08-07T06:13:36;14.10;;;3.80;;
33279;SDS011;20403;43.114;12.434;2022-08-07T06:16:02;11.85;;;3.75;;
33279;SDS011;20403;43.114;12.434;2022-08-07T06:18:31;10.07;;;3.38;;
33279;SDS011;20403;43.114;12.434;2022-08-07T06:20:58;7.90;;;3.30;;
33279;SDS011;20403;43.114;12.434;2022-08-07T06:23:25;10.65;;;3.60;;
33279;SDS011;20403;43.114;12.434;2022-08-07T06:25:51;9.73;;;3.15;;
33279;SDS011;20403;43.114;12.434;2022-08-07T06:28:17;13.93;;;3.58;;
33279;SDS011;20403;43.114;12.434;2022-08-07T06:30:42;11.80;;;3.45;;
33279;SDS011;20403;43.114;12.434;2022-08-07T06:33:08;12.27;;;3.88;;
33279;SDS011;20403;43.114;12.434;2022-08-07T06:35:34;14.77;;;4.07;;
33279;SDS011;20403;43.114;12.434;2022-08-07T06:38:00;11.63;;;3.53;;
33279;SDS011;20403;43.114;12.434;2022-08-07T06:40:27;14.77;;;3.90;;
33279;SDS011;20403;43.114;12.434;2022-08-07T06:42:55;6.15;;;2.90;;
33279;SDS011;20403;43.114;12.434;2022-08-07T06:45:21;15.45;;;3.72;;
33279;SDS011;20403;43.114;12.434;2022-08-07T06:47:47;10.32;;;3.20;;
33279;SDS011;20403;43.114;12.434;2022-08-07T06:50:14;6.95;;;3.05;;
33279;SDS011;20403;43.114;12.434;2022-08-07T06:52:44;7.60;;;2.92;;
33279;SDS011;20403;43.114;12.434;2022-08-07T06:55:21;10.00;;;3.45;;
33279;SDS011;20403;43.114;12.434;2022-08-07T06:57:48;10.32;;;2.83;;
33279;SDS011;20403;43.114;12.434;2022-08-07T07:00:15;13.00;;;3.55;;
33279;SDS011;20403;43.114;12.434;2022-08-07T07:02:43;9.32;;;3.35;;
33279;SDS011;20403;43.114;12.434;2022-08-07T07:05:09;8.07;;;3.00;;
33279;SDS011;20403;43.114;12.434;2022-08-07T07:07:35;17.88;;;3.42;;
33279;SDS011;20403;43.114;12.434;2022-08-07T07:10:01;8.65;;;2.95;;
33279;SDS011;20403;43.114;12.434;2022-08-07T07:15:24;15.32;;;3.30;;
33279;SDS011;20403;43.114;12.434;2022-08-07T07:20:38;14.38;;;3.05;;
33279;SDS011;20403;43.114;12.434;2022-08-07T07:23:10;8.05;;;3.03;;
33279;SDS011;20403;43.114;12.434;2022-08-07T07:25:38;11.88;;;3.25;;
33279;SDS011;20403;43.114;12.434;2022-08-07T07:31:09;6.82;;;2.95;;
33279;SDS011;20403;43.114;12.434;2022-08-07T07:33:39;8.80;;;2.83;;
33279;SDS011;20403;43.114;12.434;2022-08-07T07:36:07;5.53;;;2.40;;
33279;SDS011;20403;43.114;12.434;2022-08-07T07:38:34;10.95;;;3.00;;
33279;SDS011;20403;43.114;12.434;2022-08-07T07:41:00;9.52;;;2.80;;
33279;SDS011;20403;43.114;12.434;2022-08-07T07:43:31;10.68;;;2.70;;
33279;SDS011;20403;43.114;12.434;2022-08-07T07:45:58;6.50;;;2.80;;
33279;SDS011;20403;43.114;12.434;2022-08-07T07:48:25;8.35;;;3.58;;
33279;SDS011;20403;43.114;12.434;2022-08-07T07:50:53;9.13;;;2.78;;
33279;SDS011;20403;43.114;12.434;2022-08-07T07:53:20;7.03;;;2.80;;
33279;SDS011;20403;43.114;12.434;2022-08-07T07:55:48;4.68;;;2.45;;
33279;SDS011;20403;43.114;12.434;2022-08-07T07:58:21;7.13;;;2.50;;
33279;SDS011;20403;43.114;12.434;2022-08-07T08:00:47;8.20;;;2.95;;
33279;SDS011;20403;43.114;12.434;2022-08-07T08:03:14;6.10;;;2.22;;
33279;SDS011;20403;43.114;12.434;2022-08-07T08:05:42;6.22;;;2.30;;
33279;SDS011;20403;43.114;12.434;2022-08-07T08:08:09;10.23;;;2.58;;
33279;SDS011;20403;43.114;12.434;2022-08-07T08:10:37;10.07;;;2.45;;
33279;SDS011;20403;43.114;12.434;2022-08-07T08:13:03;8.95;;;2.38;;
33279;SDS011;20403;43.114;12.434;2022-08-07T08:15:33;9.57;;;2.78;;
33279;SDS011;20403;43.114;12.434;2022-08-07T08:18:02;8.32;;;3.00;;
33279;SDS011;20403;43.114;12.434;2022-08-07T08:20:32;11.60;;;2.50;;
33279;SDS011;20403;43.114;12.434;2022-08-07T08:22:59;8.77;;;2.80;;
33279;SDS011;20403;43.114;12.434;2022-08-07T08:25:45;8.68;;;2.47;;
33279;SDS011;20403;43.114;12.434;2022-08-07T08:28:32;7.18;;;2.70;;
33279;SDS011;20403;43.114;12.434;2022-08-07T08:31:01;9.47;;;2.97;;
33279;SDS011;20403;43.114;12.434;2022-08-07T08:33:32;5.38;;;2.35;;
33279;SDS011;20403;43.114;12.434;2022-08-07T08:35:59;5.03;;;2.80;;
33279;SDS011;20403;43.114;12.434;2022-08-07T08:38:27;9.25;;;3.25;;
33279;SDS011;20403;43.114;12.434;2022-08-07T08:41:09;14.88;;;2.75;;
33279;SDS011;20403;43.114;12.434;2022-08-07T08:46:41;13.02;;;3.08;;
33279;SDS011;20403;43.114;12.434;2022-08-07T08:52:18;7.15;;;2.70;;
33279;SDS011;20403;43.114;12.434;2022-08-07T08:55:18;5.03;;;2.28;;
33279;SDS011;20403;43.114;12.434;2022-08-07T08:58:09;8.27;;;2.28;;
33279;SDS011;20403;43.114;12.434;2022-08-07T09:00:42;7.60;;;2.50;;
33279;SDS011;20403;43.114;12.434;2022-08-07T09:05:59;12.80;;;2.83;;
33279;SDS011;20403;43.114;12.434;2022-08-07T09:08:36;10.27;;;2.55;;
33279;SDS011;20403;43.114;12.434;2022-08-07T09:11:29;7.90;;;2.50;;
33279;SDS011;20403;43.114;12.434;2022-08-07T09:20:26;7.85;;;2.78;;
33279;SDS011;20403;43.114;12.434;2022-08-07T09:23:01;7.97;;;2.67;;
33279;SDS011;20403;43.114;12.434;2022-08-07T09:25:46;14.10;;;2.75;;
33279;SDS011;20403;43.114;12.434;2022-08-07T09:28:34;9.57;;;2.42;;
33279;SDS011;20403;43.114;12.434;2022-08-07T09:31:15;8.45;;;2.30;;
33279;SDS011;20403;43.114;12.434;2022-08-07T09:36:38;8.77;;;3.00;;
33279;SDS011;20403;43.114;12.434;2022-08-07T09:42:27;7.88;;;2.58;;
33279;SDS011;20403;43.114;12.434;2022-08-07T09:44:48;4.78;;;2.50;;
33279;SDS011;20403;43.114;12.434;2022-08-07T09:47:43;10.50;;;2.38;;
33279;SDS011;20403;43.114;12.434;2022-08-07T09:53:10;8.68;;;3.10;;
33279;SDS011;20403;43.114;12.434;2022-08-07T09:55:43;9.15;;;2.83;;
33279;SDS011;20403;43.114;12.434;2022-08-07T09:58:23;7.47;;;2.35;;
33279;SDS011;20403;43.114;12.434;2022-08-07T10:18:15;11.38;;;2.40;;
33279;SDS011;20403;43.114;12.434;2022-08-07T10:23:57;4.63;;;2.17;;
33279;SDS011;20403;43.114;12.434;2022-08-07T10:35:14;10.60;;;2.47;;
33279;SDS011;20403;43.114;12.434;2022-08-07T10:37:58;8.63;;;2.33;;
33279;SDS011;20403;43.114;12.434;2022-08-07T10:43:13;7.38;;;2.38;;
33279;SDS011;20403;43.114;12.434;2022-08-07T10:45:47;6.35;;;2.38;;
33279;SDS011;20403;43.114;12.434;2022-08-07T10:50:59;6.78;;;2.80;;
33279;SDS011;20403;43.114;12.434;2022-08-07T10:53:26;13.70;;;2.90;;
33279;SDS011;20403;43.114;12.434;2022-08-07T10:56:08;4.20;;;2.17;;
33279;SDS011;20403;43.114;12.434;2022-08-07T10:59:00;5.20;;;2.30;;
33279;SDS011;20403;43.114;12.434;2022-08-07T11:01:38;11.35;;;2.47;;
33279;SDS011;20403;43.114;12.434;2022-08-07T11:07:13;6.68;;;2.22;;
33279;SDS011;20403;43.114;12.434;2022-08-07T11:12:15;4.22;;;2.20;;
33279;SDS011;20403;43.114;12.434;2022-08-07T11:15:29;6.43;;;2.35;;
33279;SDS011;20403;43.114;12.434;2022-08-07T11:20:48;6.50;;;2.33;;
33279;SDS011;20403;43.114;12.434;2022-08-07T11:23:25;4.97;;;2.35;;
33279;SDS011;20403;43.114;12.434;2022-08-07T11:26:15;6.43;;;2.38;;
33279;SDS011;20403;43.114;12.434;2022-08-07T11:29:31;5.28;;;2.13;;
33279;SDS011;20403;43.114;12.434;2022-08-07T11:34:19;9.75;;;2.63;;
33279;SDS011;20403;43.114;12.434;2022-08-07T11:37:10;8.52;;;2.53;;
33279;SDS011;20403;43.114;12.434;2022-08-07T11:43:15;4.43;;;2.40;;
33279;SDS011;20403;43.114;12.434;2022-08-07T11:46:02;6.30;;;2.47;;
33279;SDS011;20403;43.114;12.434;2022-08-07T11:53:56;9.98;;;2.47;;
33279;SDS011;20403;43.114;12.434;2022-08-07T11:56:46;8.65;;;2.80;;
33279;SDS011;20403;43.114;12.434;2022-08-07T12:07:54;10.90;;;2.45;;
33279;SDS011;20403;43.114;12.434;2022-08-07T12:10:38;6.30;;;2.45;;
33279;SDS011;20403;43.114;12.434;2022-08-07T12:15:49;6.50;;;2.55;;
33279;SDS011;20403;43.114;12.434;2022-08-07T12:18:24;6.00;;;2.47;;
33279;SDS011;20403;43.114;12.434;2022-08-07T12:26:33;7.55;;;2.28;;
33279;SDS011;20403;43.114;12.434;2022-08-07T12:29:16;4.70;;;2.72;;
33279;SDS011;20403;43.114;12.434;2022-08-07T12:31:53;7.68;;;2.80;;
33279;SDS011;20403;43.114;12.434;2022-08-07T12:34:24;8.23;;;2.58;;
33279;SDS011;20403;43.114;12.434;2022-08-07T12:36:53;8.27;;;2.50;;
33279;SDS011;20403;43.114;12.434;2022-08-07T12:39:20;6.80;;;2.90;;
33279;SDS011;20403;43.114;12.434;2022-08-07T12:41:48;5.10;;;2.50;;
33279;SDS011;20403;43.114;12.434;2022-08-07T12:44:18;7.63;;;2.38;;
33279;SDS011;20403;43.114;12.434;2022-08-07T12:46:54;8.48;;;2.70;;
33279;SDS011;20403;43.114;12.434;2022-08-07T12:52:00;9.52;;;2.85;;
33279;SDS011;20403;43.114;12.434;2022-08-07T12:54:31;10.65;;;2.92;;
33279;SDS011;20403;43.114;12.434;2022-08-07T12:57:04;4.03;;;2.20;;
33279;SDS011;20403;43.114;12.434;2022-08-07T12:59:32;10.85;;;2.63;;
33279;SDS011;20403;43.114;12.434;2022-08-07T13:15:52;6.47;;;2.30;;
33279;SDS011;20403;43.114;12.434;2022-08-07T13:21:21;7.78;;;2.38;;
33279;SDS011;20403;43.114;12.434;2022-08-07T13:26:28;5.43;;;2.47;;
33279;SDS011;20403;43.114;12.434;2022-08-07T13:29:48;4.78;;;2.50;;
33279;SDS011;20403;43.114;12.434;2022-08-07T13:31:51;7.40;;;2.42;;
33279;SDS011;20403;43.114;12.434;2022-08-07T13:34:36;7.40;;;2.28;;
33279;SDS011;20403;43.114;12.434;2022-08-07T13:40:05;5.28;;;2.83;;
33279;SDS011;20403;43.114;12.434;2022-08-07T13:42:37;6.15;;;2.38;;
33279;SDS011;20403;43.114;12.434;2022-08-07T13:45:04;5.28;;;2.40;;
33279;SDS011;20403;43.114;12.434;2022-08-07T13:47:33;5.88;;;2.30;;
33279;SDS011;20403;43.114;12.434;2022-08-07T13:50:01;8.05;;;2.20;;
33279;SDS011;20403;43.114;12.434;2022-08-07T13:52:29;7.22;;;2.45;;
33279;SDS011;20403;43.114;12.434;2022-08-07T13:54:55;5.70;;;2.50;;
33279;SDS011;20403;43.114;12.434;2022-08-07T13:57:26;6.50;;;2.45;;
33279;SDS011;20403;43.114;12.434;2022-08-07T13:59:53;3.38;;;2.10;;
33279;SDS011;20403;43.114;12.434;2022-08-07T14:02:27;5.90;;;2.10;;
33279;SDS011;20403;43.114;12.434;2022-08-07T14:04:56;5.88;;;2.08;;
33279;SDS011;20403;43.114;12.434;2022-08-07T14:07:27;5.35;;;1.88;;
33279;SDS011;20403;43.114;12.434;2022-08-07T14:10:02;4.03;;;2.05;;
33279;SDS011;20403;43.114;12.434;2022-08-07T14:15:19;5.50;;;2.10;;
33279;SDS011;20403;43.114;12.434;2022-08-07T14:17:45;5.78;;;2.42;;
33279;SDS011;20403;43.114;12.434;2022-08-07T14:20:15;6.78;;;2.40;;
33279;SDS011;20403;43.114;12.434;2022-08-07T14:22:50;6.60;;;2.20;;
33279;SDS011;20403;43.114;12.434;2022-08-07T14:25:22;4.88;;;2.30;;
33279;SDS011;20403;43.114;12.434;2022-08-07T14:27:50;7.97;;;2.15;;
33279;SDS011;20403;43.114;12.434;2022-08-07T14:30:18;4.28;;;2.17;;
33279;SDS011;20403;43.114;12.434;2022-08-07T14:32:49;3.30;;;2.35;;
33279;SDS011;20403;43.114;12.434;2022-08-07T14:35:23;9.35;;;2.10;;
33279;SDS011;20403;43.114;12.434;2022-08-07T14:37:52;6.38;;;2.60;;
33279;SDS011;20403;43.114;12.434;2022-08-07T14:40:22;9.77;;;2.58;;
33279;SDS011;20403;43.114;12.434;2022-08-07T14:42:59;4.00;;;2.10;;
33279;SDS011;20403;43.114;12.434;2022-08-07T14:45:27;8.82;;;2.28;;
33279;SDS011;20403;43.114;12.434;2022-08-07T14:47:56;6.00;;;2.20;;
33279;SDS011;20403;43.114;12.434;2022-08-07T14:50:25;5.22;;;2.55;;
33279;SDS011;20403;43.114;12.434;2022-08-07T14:52:53;5.45;;;2.00;;
33279;SDS011;20403;43.114;12.434;2022-08-07T14:55:19;7.75;;;2.50;;
33279;SDS011;20403;43.114;12.434;2022-08-07T14:57:46;7.57;;;2.70;;
33279;SDS011;20403;43.114;12.434;2022-08-07T15:00:15;7.07;;;2.58;;
33279;SDS011;20403;43.114;12.434;2022-08-07T15:02:44;7.10;;;2.17;;
33279;SDS011;20403;43.114;12.434;2022-08-07T15:05:15;9.15;;;2.60;;
33279;SDS011;20403;43.114;12.434;2022-08-07T15:07:43;5.53;;;2.10;;
33279;SDS011;20403;43.114;12.434;2022-08-07T15:10:09;8.13;;;2.70;;
33279;SDS011;20403;43.114;12.434;2022-08-07T15:12:41;5.22;;;2.35;;
33279;SDS011;20403;43.114;12.434;2022-08-07T15:15:10;6.50;;;2.30;;
33279;SDS011;20403;43.114;12.434;2022-08-07T15:17:40;5.70;;;2.30;;
33279;SDS011;20403;43.114;12.434;2022-08-07T15:20:09;4.80;;;2.20;;
33279;SDS011;20403;43.114;12.434;2022-08-07T15:22:49;7.68;;;2.00;;
33279;SDS011;20403;43.114;12.434;2022-08-07T15:25:23;5.95;;;2.00;;
33279;SDS011;20403;43.114;12.434;2022-08-07T15:27:53;6.55;;;2.03;;
33279;SDS011;20403;43.114;12.434;2022-08-07T15:30:21;5.88;;;1.95;;
33279;SDS011;20403;43.114;12.434;2022-08-07T15:32:49;6.18;;;2.00;;
33279;SDS011;20403;43.114;12.434;2022-08-07T15:35:15;6.78;;;1.80;;
33279;SDS011;20403;43.114;12.434;2022-08-07T15:37:47;4.00;;;2.13;;
33279;SDS011;20403;43.114;12.434;2022-08-07T15:40:15;5.15;;;2.05;;
33279;SDS011;20403;43.114;12.434;2022-08-07T15:45:15;6.68;;;2.10;;
33279;SDS011;20403;43.114;12.434;2022-08-07T15:47:53;7.75;;;2.08;;
33279;SDS011;20403;43.114;12.434;2022-08-07T15:50:26;4.88;;;2.15;;
33279;SDS011;20403;43.114;12.434;2022-08-07T15:52:55;3.83;;;2.00;;
33279;SDS011;20403;43.114;12.434;2022-08-07T15:55:23;8.70;;;2.30;;
33279;SDS011;20403;43.114;12.434;2022-08-07T15:57:51;10.40;;;2.08;;
33279;SDS011;20403;43.114;12.434;2022-08-07T16:00:19;3.08;;;1.90;;
33279;SDS011;20403;43.114;12.434;2022-08-07T16:02:46;5.03;;;2.22;;
33279;SDS011;20403;43.114;12.434;2022-08-07T16:05:18;6.68;;;2.22;;
33279;SDS011;20403;43.114;12.434;2022-08-07T16:07:50;4.15;;;1.70;;
33279;SDS011;20403;43.114;12.434;2022-08-07T16:10:26;7.80;;;2.03;;
33279;SDS011;20403;43.114;12.434;2022-08-07T16:15:44;5.95;;;2.22;;
33279;SDS011;20403;43.114;12.434;2022-08-07T16:18:43;7.13;;;2.42;;
33279;SDS011;20403;43.114;12.434;2022-08-07T16:26:51;10.57;;;2.40;;
33279;SDS011;20403;43.114;12.434;2022-08-07T16:32:24;3.88;;;1.83;;
33279;SDS011;20403;43.114;12.434;2022-08-07T16:34:54;8.13;;;1.90;;
33279;SDS011;20403;43.114;12.434;2022-08-07T16:40:32;9.27;;;2.00;;
33279;SDS011;20403;43.114;12.434;2022-08-07T16:54:31;9.98;;;2.33;;
33279;SDS011;20403;43.114;12.434;2022-08-07T17:00:38;5.10;;;2.30;;
33279;SDS011;20403;43.114;12.434;2022-08-07T17:08:31;3.67;;;2.47;;
33279;SDS011;20403;43.114;12.434;2022-08-07T17:11:05;5.82;;;2.17;;
33279;SDS011;20403;43.114;12.434;2022-08-07T17:13:41;7.82;;;2.20;;
33279;SDS011;20403;43.114;12.434;2022-08-07T17:16:24;6.43;;;2.20;;
33279;SDS011;20403;43.114;12.434;2022-08-07T17:21:22;5.60;;;2.30;;
33279;SDS011;20403;43.114;12.434;2022-08-07T17:23:53;5.18;;;1.92;;
33279;SDS011;20403;43.114;12.434;2022-08-07T17:34:54;12.40;;;2.53;;
33279;SDS011;20403;43.114;12.434;2022-08-07T17:37:29;8.85;;;2.10;;
33279;SDS011;20403;43.114;12.434;2022-08-07T17:40:03;10.93;;;2.47;;
33279;SDS011;20403;43.114;12.434;2022-08-07T17:45:03;11.73;;;2.47;;
33279;SDS011;20403;43.114;12.434;2022-08-07T17:47:46;15.15;;;2.55;;
33279;SDS011;20403;43.114;12.434;2022-08-07T17:53:02;13.73;;;2.60;;
33279;SDS011;20403;43.114;12.434;2022-08-07T17:55:36;5.55;;;1.95;;
33279;SDS011;20403;43.114;12.434;2022-08-07T17:58:21;10.02;;;2.35;;
33279;SDS011;20403;43.114;12.434;2022-08-07T18:00:53;8.32;;;2.40;;
33279;SDS011;20403;43.114;12.434;2022-08-07T18:05:58;11.88;;;2.40;;
33279;SDS011;20403;43.114;12.434;2022-08-07T18:08:41;9.57;;;2.40;;
33279;SDS011;20403;43.114;12.434;2022-08-07T18:11:26;7.57;;;2.13;;
33279;SDS011;20403;43.114;12.434;2022-08-07T18:16:50;5.40;;;2.30;;
33279;SDS011;20403;43.114;12.434;2022-08-07T18:22:29;5.93;;;2.03;;
33279;SDS011;20403;43.114;12.434;2022-08-07T18:24:54;5.90;;;2.20;;
33279;SDS011;20403;43.114;12.434;2022-08-07T18:30:29;8.02;;;2.50;;
33279;SDS011;20403;43.114;12.434;2022-08-07T18:33:12;12.82;;;2.80;;
33279;SDS011;20403;43.114;12.434;2022-08-07T18:41:21;8.43;;;2.22;;
33279;SDS011;20403;43.114;12.434;2022-08-07T18:44:46;6.85;;;2.55;;
33279;SDS011;20403;43.114;12.434;2022-08-07T18:46:51;8.70;;;2.42;;
33279;SDS011;20403;43.114;12.434;2022-08-07T18:50:12;11.98;;;2.50;;
33279;SDS011;20403;43.114;12.434;2022-08-07T18:58:18;7.57;;;2.30;;
33279;SDS011;20403;43.114;12.434;2022-08-07T19:03:24;6.82;;;2.72;;
33279;SDS011;20403;43.114;12.434;2022-08-07T19:06:01;5.75;;;2.92;;
33279;SDS011;20403;43.114;12.434;2022-08-07T19:11:15;9.70;;;3.05;;
33279;SDS011;20403;43.114;12.434;2022-08-07T19:21:29;9.93;;;3.53;;
33279;SDS011;20403;43.114;12.434;2022-08-07T19:24:03;7.97;;;2.75;;
33279;SDS011;20403;43.114;12.434;2022-08-07T19:26:49;5.38;;;3.03;;
33279;SDS011;20403;43.114;12.434;2022-08-07T19:29:18;16.90;;;4.13;;
33279;SDS011;20403;43.114;12.434;2022-08-07T19:31:46;5.03;;;2.63;;
33279;SDS011;20403;43.114;12.434;2022-08-07T19:34:16;7.87;;;3.57;;
33279;SDS011;20403;43.114;12.434;2022-08-07T19:36:46;13.57;;;3.25;;
33279;SDS011;20403;43.114;12.434;2022-08-07T19:39:15;7.60;;;2.70;;
33279;SDS011;20403;43.114;12.434;2022-08-07T19:41:48;5.78;;;3.13;;
33279;SDS011;20403;43.114;12.434;2022-08-07T19:44:17;6.75;;;2.80;;
33279;SDS011;20403;43.114;12.434;2022-08-07T19:46:51;8.13;;;3.10;;
33279;SDS011;20403;43.114;12.434;2022-08-07T19:49:26;5.47;;;2.72;;
33279;SDS011;20403;43.114;12.434;2022-08-07T19:51:55;4.45;;;2.67;;
33279;SDS011;20403;43.114;12.434;2022-08-07T19:54:21;7.03;;;3.20;;
33279;SDS011;20403;43.114;12.434;2022-08-07T19:56:49;6.93;;;2.90;;
33279;SDS011;20403;43.114;12.434;2022-08-07T19:59:23;5.53;;;2.63;;
33279;SDS011;20403;43.114;12.434;2022-08-07T20:01:56;5.70;;;2.85;;
33279;SDS011;20403;43.114;12.434;2022-08-07T20:04:28;6.63;;;3.03;;
33279;SDS011;20403;43.114;12.434;2022-08-07T20:07:01;10.75;;;2.85;;
33279;SDS011;20403;43.114;12.434;2022-08-07T20:09:27;7.60;;;3.00;;
33279;SDS011;20403;43.114;12.434;2022-08-07T20:11:56;11.05;;;3.28;;
33279;SDS011;20403;43.114;12.434;2022-08-07T20:14:30;13.35;;;3.58;;
33279;SDS011;20403;43.114;12.434;2022-08-07T20:16:58;11.25;;;3.40;;
33279;SDS011;20403;43.114;12.434;2022-08-07T20:19:27;6.65;;;2.88;;
33279;SDS011;20403;43.114;12.434;2022-08-07T20:21:54;7.97;;;3.25;;
33279;SDS011;20403;43.114;12.434;2022-08-07T20:24:21;12.15;;;3.00;;
33279;SDS011;20403;43.114;12.434;2022-08-07T20:26:50;4.93;;;2.90;;
33279;SDS011;20403;43.114;12.434;2022-08-07T20:29:22;21.67;;;3.80;;
33279;SDS011;20403;43.114;12.434;2022-08-07T20:31:53;6.40;;;3.00;;
33279;SDS011;20403;43.114;12.434;2022-08-07T20:34:20;6.45;;;2.88;;
33279;SDS011;20403;43.114;12.434;2022-08-07T20:36:49;8.50;;;3.30;;
33279;SDS011;20403;43.114;12.434;2022-08-07T20:39:21;9.38;;;3.00;;
33279;SDS011;20403;43.114;12.434;2022-08-07T20:41:51;8.57;;;3.13;;
33279;SDS011;20403;43.114;12.434;2022-08-07T20:44:19;5.47;;;3.17;;
33279;SDS011;20403;43.114;12.434;2022-08-07T20:46:51;7.38;;;3.55;;
33279;SDS011;20403;43.114;12.434;2022-08-07T20:49:19;20.40;;;3.33;;
33279;SDS011;20403;43.114;12.434;2022-08-07T20:51:49;11.73;;;3.67;;
33279;SDS011;20403;43.114;12.434;2022-08-07T20:54:15;21.73;;;3.38;;
33279;SDS011;20403;43.114;12.434;2022-08-07T20:56:44;25.83;;;3.28;;
33279;SDS011;20403;43.114;12.434;2022-08-07T20:59:13;27.65;;;4.60;;
33279;SDS011;20403;43.114;12.434;2022-08-07T21:01:41;26.05;;;3.40;;
33279;SDS011;20403;43.114;12.434;2022-08-07T21:04:10;12.55;;;3.20;;
33279;SDS011;20403;43.114;12.434;2022-08-07T21:06:39;20.10;;;3.35;;
33279;SDS011;20403;43.114;12.434;2022-08-07T21:09:08;18.55;;;3.00;;
33279;SDS011;20403;43.114;12.434;2022-08-07T21:11:37;13.00;;;2.72;;
33279;SDS011;20403;43.114;12.434;2022-08-07T21:14:09;12.98;;;2.60;;
33279;SDS011;20403;43.114;12.434;2022-08-07T21:19:38;12.02;;;3.30;;
33279;SDS011;20403;43.114;12.434;2022-08-07T21:22:08;14.52;;;2.55;;
33279;SDS011;20403;43.114;12.434;2022-08-07T21:24:40;13.40;;;3.13;;
33279;SDS011;20403;43.114;12.434;2022-08-07T21:27:15;4.13;;;2.60;;
33279;SDS011;20403;43.114;12.434;2022-08-07T21:29:51;15.52;;;2.63;;
33279;SDS011;20403;43.114;12.434;2022-08-07T21:32:43;8.52;;;2.35;;
33279;SDS011;20403;43.114;12.434;2022-08-07T21:35:28;7.55;;;2.25;;
33279;SDS011;20403;43.114;12.434;2022-08-07T21:38:06;5.53;;;2.05;;
33279;SDS011;20403;43.114;12.434;2022-08-07T21:43:13;12.98;;;2.50;;
33279;SDS011;20403;43.114;12.434;2022-08-07T21:45:57;3.88;;;2.17;;
33279;SDS011;20403;43.114;12.434;2022-08-07T21:48:38;5.50;;;2.60;;
33279;SDS011;20403;43.114;12.434;2022-08-07T21:53:59;8.00;;;2.40;;
33279;SDS011;20403;43.114;12.434;2022-08-07T22:02:00;9.32;;;2.45;;
33279;SDS011;20403;43.114;12.434;2022-08-07T22:04:33;6.65;;;2.63;;
33279;SDS011;20403;43.114;12.434;2022-08-07T22:07:02;6.20;;;2.05;;
33279;SDS011;20403;43.114;12.434;2022-08-07T22:09:35;6.20;;;2.38;;
33279;SDS011;20403;43.114;12.434;2022-08-07T22:12:10;7.35;;;3.17;;
33279;SDS011;20403;43.114;12.434;2022-08-07T22:14:46;11.23;;;2.83;;
33279;SDS011;20403;43.114;12.434;2022-08-07T22:17:19;5.40;;;2.20;;
33279;SDS011;20403;43.114;12.434;2022-08-07T22:22:35;8.20;;;2.80;;
33279;SDS011;20403;43.114;12.434;2022-08-07T22:25:19;5.45;;;2.20;;
33279;SDS011;20403;43.114;12.434;2022-08-07T22:27:54;7.57;;;2.47;;
33279;SDS011;20403;43.114;12.434;2022-08-07T22:30:27;8.02;;;2.50;;
33279;SDS011;20403;43.114;12.434;2022-08-07T22:33:06;4.00;;;2.20;;
33279;SDS011;20403;43.114;12.434;2022-08-07T22:35:46;8.05;;;2.17;;
33279;SDS011;20403;43.114;12.434;2022-08-07T22:38:21;6.38;;;2.05;;
33279;SDS011;20403;43.114;12.434;2022-08-07T22:41:50;12.82;;;2.70;;
33279;SDS011;20403;43.114;12.434;2022-08-07T22:43:51;7.72;;;2.63;;
33279;SDS011;20403;43.114;12.434;2022-08-07T22:46:33;4.22;;;2.30;;
33279;SDS011;20403;43.114;12.434;2022-08-07T22:57:55;5.35;;;2.40;;
33279;SDS011;20403;43.114;12.434;2022-08-07T23:09:15;3.75;;;2.50;;
33279;SDS011;20403;43.114;12.434;2022-08-07T23:30:11;8.82;;;2.00;;
33279;SDS011;20403;43.114;12.434;2022-08-07T23:35:42;6.22;;;2.33;;
33279;SDS011;20403;43.114;12.434;2022-08-07T23:38:27;2.97;;;2.15;;
33279;SDS011;20403;43.114;12.434;2022-08-07T23:41:02;6.30;;;2.28;;
33279;SDS011;20403;43.114;12.434;2022-08-07T23:52:11;3.42;;;2.53;;
33279;SDS011;20403;43.114;12.434;2022-08-07T23:57:54;4.80;;;2.30;;
